FYWH/WDH METAR and TAF weather

Enter ICAO airport designator
Station Type Date Time Source
FYWH METAR 2018/12/10 17:00 UTC NOAA

FYWH 101700Z AUTO 09001KT //// // ////// 28/M12 Q////


Station Type Date Time Source
FYWH Decoded METAR 2018/12/10 17:00 UTC NOAA

J. G. Strijdom, Namibia (FYWH) 22-29S 017-28E 1700M
Dec 10, 2018 - 12:00 PM EST / 2018.12.10 1700 UTC
Wind: from the E (090 degrees) at 1 MPH (1 KT):0
Temperature: 82 F (28 C)
Dew Point: 10 F (-12 C)
Relative Humidity: 6%
ob: FYWH 101700Z AUTO 09001KT //// // ////// 28/M12 Q////
cycle: 17

Station Type Date Time Source
FYWH TAF 2018/12/10 18:51 UTC NOAA

TAF FYWH 101600Z 1018/1118 21004KT CAVOK
BECMG 1019/1021 14006KT
BECMG 1107/1109 08008KT


Example: see airport list